createdAt,value
2022-11-19T00:00:15.986Z,6.1
2022-11-19T00:06:35.927Z,6.1
2022-11-19T00:12:58.928Z,4.8
2022-11-19T00:19:19.151Z,4.8
2022-11-19T00:25:42.057Z,4.7
2022-11-19T00:32:01.908Z,4.7
2022-11-19T00:38:25.022Z,3
2022-11-19T00:44:44.931Z,3
2022-11-19T00:51:07.933Z,6.1
2022-11-19T00:57:28.045Z,6.1
2022-11-19T01:03:50.959Z,8.2
2022-11-19T01:10:10.996Z,8.2
2022-11-19T01:16:33.980Z,7.8
2022-11-19T01:22:53.946Z,7.8
2022-11-19T01:29:17.132Z,5.6
2022-11-19T01:35:36.976Z,5.6
2022-11-19T01:41:59.923Z,4.9
2022-11-19T01:48:19.936Z,4.9
2022-11-19T01:54:42.959Z,6
2022-11-19T02:01:02.954Z,6
2022-11-19T02:07:26.058Z,4.8
2022-11-19T02:13:45.928Z,4.8
2022-11-19T02:20:08.993Z,1.2
2022-11-19T02:26:28.931Z,1.2
2022-11-19T02:32:52.006Z,2.9
2022-11-19T02:39:11.907Z,2.9
2022-11-19T02:45:35.047Z,5.6
2022-11-19T02:51:54.995Z,5.6
2022-11-19T02:58:17.935Z,2.5
2022-11-19T03:04:37.960Z,2.5
2022-11-19T03:11:00.967Z,6.7
2022-11-19T03:17:20.972Z,6.7
2022-11-19T03:23:43.895Z,0.2
2022-11-19T03:30:03.998Z,0.2
2022-11-19T03:36:26.963Z,2.5
2022-11-19T03:42:46.998Z,2.5
2022-11-19T03:49:09.970Z,0.6
2022-11-19T03:55:29.914Z,0.6
2022-11-19T04:01:53.040Z,0.5
2022-11-19T04:08:12.984Z,0.5
2022-11-19T04:14:36.017Z,2.3
2022-11-19T04:20:55.970Z,2.3
2022-11-19T04:37:42.561Z,0.5
2022-11-19T04:44:02.939Z,0.5
2022-11-19T04:50:25.886Z,2.6
2022-11-19T04:56:45.940Z,2.6
2022-11-19T05:03:08.898Z,2.6
2022-11-19T05:09:28.989Z,2.6
2022-11-19T05:15:52.076Z,4.4
2022-11-19T05:22:12.084Z,4.4
2022-11-19T05:28:39.611Z,5.4
2022-11-19T05:34:54.990Z,5.4
2022-11-19T05:41:18.133Z,9.8
2022-11-19T05:47:38.015Z,9.8
2022-11-19T05:54:01.096Z,9.2
2022-11-19T06:00:21.036Z,9.2
2022-11-19T06:06:44.000Z,7.5
2022-11-19T06:13:04.164Z,7.5
2022-11-19T06:19:27.012Z,5.1
2022-11-19T06:25:46.995Z,5.1
2022-11-19T06:32:10.034Z,9.4
2022-11-19T06:38:29.944Z,9.4
2022-11-19T06:44:52.995Z,6.7
2022-11-19T06:51:12.983Z,6.7
2022-11-19T06:57:35.994Z,13.3
2022-11-19T07:03:56.037Z,13.3
2022-11-19T07:10:18.919Z,11.4
2022-11-19T07:16:38.992Z,11.4
2022-11-19T07:23:01.913Z,13
2022-11-19T07:29:22.359Z,13
2022-11-19T07:35:45.122Z,11.8
2022-11-19T07:42:04.968Z,11.8
2022-11-19T07:48:28.065Z,13
2022-11-19T07:54:47.947Z,13
2022-11-19T08:01:11.027Z,14.5
2022-11-19T08:07:31.172Z,14.5
2022-11-19T08:13:53.955Z,17.3
2022-11-19T08:20:14.025Z,17.3
2022-11-19T08:26:36.977Z,9.9
2022-11-19T08:32:56.936Z,9.9
2022-11-19T08:39:20.212Z,17.8
2022-11-19T08:45:40.028Z,17.8
2022-11-19T08:52:03.013Z,11.1
2022-11-19T08:58:22.938Z,11.1
2022-11-19T09:04:46.048Z,7.7
2022-11-19T09:11:05.970Z,7.7
2022-11-19T09:17:29.041Z,16.7
2022-11-19T09:41:27.937Z,7.2
2022-11-19T09:47:47.893Z,7.2
2022-11-19T09:54:10.898Z,4.6
2022-11-19T10:00:30.961Z,4.6
2022-11-19T10:06:53.916Z,9.4
2022-11-19T10:13:14.109Z,9.4
2022-11-19T10:19:37.102Z,6.6
2022-11-19T10:25:56.972Z,6.6
2022-11-19T10:32:19.969Z,10.7
2022-11-19T10:38:39.974Z,10.7
2022-11-19T10:45:02.930Z,12.3
2022-11-19T10:51:22.897Z,12.3
2022-11-19T10:57:46.111Z,15
2022-11-19T11:04:05.989Z,15
2022-11-19T11:10:28.982Z,9
2022-11-19T11:16:49.100Z,9
2022-11-19T11:23:12.021Z,6.1
2022-11-19T11:29:32.088Z,6.1
2022-11-19T11:35:55.027Z,7.1
2022-11-19T11:42:17.737Z,7.1
2022-11-19T11:48:37.988Z,5.2
2022-11-19T11:54:57.977Z,5.2
2022-11-19T12:01:20.964Z,8.7
2022-11-19T12:07:41.032Z,8.7
2022-11-19T12:14:08.116Z,8.7
2022-11-19T12:20:23.997Z,8.7
2022-11-19T12:26:46.962Z,7.2
2022-11-19T12:33:07.013Z,7.2
2022-11-19T12:39:30.040Z,5.1
2022-11-19T12:45:49.914Z,5.1
2022-11-19T12:52:13.133Z,10.5
2022-11-19T12:58:33.012Z,10.5
2022-11-19T13:04:55.961Z,4.1
2022-11-19T13:11:16.053Z,4.1
2022-11-19T13:17:38.927Z,10.2
2022-11-19T13:23:59.034Z,10.2
2022-11-19T13:30:21.998Z,8.7
2022-11-19T13:36:41.935Z,8.7
2022-11-19T13:43:25.311Z,6.3
2022-11-19T13:49:24.982Z,6.3
2022-11-19T13:55:48.046Z,4.6
2022-11-19T14:02:08.004Z,4.6
2022-11-19T14:08:31.101Z,8.5
2022-11-19T14:14:51.007Z,8.5
2022-11-19T14:21:13.945Z,4
2022-11-19T14:27:33.964Z,4
2022-11-19T14:33:57.073Z,5.7
2022-11-19T14:49:46.862Z,15.2
2022-11-19T14:56:06.889Z,15.2
2022-11-19T15:02:29.881Z,14.5
2022-11-19T15:08:49.991Z,14.5
2022-11-19T15:15:12.899Z,6.4
2022-11-19T15:21:33.029Z,6.4
2022-11-19T15:27:56.000Z,11.3
2022-11-19T15:34:15.894Z,11.3
2022-11-19T15:40:39.006Z,4.9
2022-11-19T15:46:59.011Z,4.9
2022-11-19T15:53:21.916Z,8.4
2022-11-19T15:59:41.901Z,8.4
2022-11-19T16:06:05.022Z,8.4
2022-11-19T16:12:25.075Z,8.4
2022-11-19T16:18:47.874Z,12.4
2022-11-19T16:25:08.080Z,12.4
2022-11-19T16:31:30.965Z,13.4
2022-11-19T16:37:50.982Z,13.4
2022-11-19T16:44:14.028Z,4.1
2022-11-19T16:50:33.992Z,4.1
2022-11-19T16:56:56.998Z,9.3
2022-11-19T17:03:16.996Z,9.3
2022-11-19T17:09:39.948Z,10.9
2022-11-19T17:15:59.994Z,10.9
2022-11-19T17:22:22.987Z,6.7
2022-11-19T17:28:43.017Z,6.7
2022-11-19T17:35:05.991Z,13.7
2022-11-19T17:41:26.002Z,13.7
2022-11-19T17:47:48.955Z,11.5
2022-11-19T17:54:08.884Z,11.5
2022-11-19T18:00:32.146Z,10.7
2022-11-19T18:06:51.898Z,10.7
2022-11-19T18:13:14.973Z,9.2
2022-11-19T18:19:35.134Z,9.2
2022-11-19T18:25:57.881Z,11.3
2022-11-19T18:32:18.115Z,11.3
2022-11-19T18:38:41.514Z,5.4
2022-11-19T18:45:01.156Z,5.4
2022-11-19T18:51:24.223Z,8.7
2022-11-19T18:57:44.139Z,8.7
2022-11-19T19:04:07.025Z,10.7
2022-11-19T19:10:27.104Z,10.7
2022-11-19T19:16:50.115Z,14.4
2022-11-19T19:23:09.960Z,14.4
2022-11-19T19:29:33.001Z,7.8
2022-11-19T19:35:53.189Z,7.8
2022-11-19T19:51:27.338Z,11.8
2022-11-19T19:57:46.934Z,11.8
2022-11-19T20:04:09.911Z,10.5
2022-11-19T20:10:29.950Z,10.5
2022-11-19T20:16:53.049Z,5.4
2022-11-19T20:23:13.082Z,5.4
2022-11-19T20:29:35.924Z,8.1
2022-11-19T20:35:55.885Z,8.1
2022-11-19T20:42:18.992Z,13.1
2022-11-19T20:48:38.993Z,13.1
2022-11-19T20:55:06.362Z,9.9
2022-11-19T21:01:24.618Z,9.9
2022-11-19T21:07:45.023Z,7.3
2022-11-19T21:14:04.924Z,7.3
2022-11-19T21:20:27.902Z,8.4
2022-11-19T21:26:48.062Z,8.4
2022-11-19T21:33:11.020Z,15.3
2022-11-19T21:39:31.015Z,15.3
2022-11-19T21:45:54.019Z,15.9
2022-11-19T21:52:13.994Z,15.9
2022-11-19T21:58:37.153Z,16.4
2022-11-19T22:04:57.007Z,16.4
2022-11-19T22:11:19.937Z,16.1
2022-11-19T22:17:39.996Z,16.1
2022-11-19T22:24:03.061Z,9.6
2022-11-19T22:30:23.077Z,9.6
2022-11-19T22:36:45.994Z,20.1
2022-11-19T22:43:06.011Z,20.1
2022-11-19T22:49:28.994Z,11.8
2022-11-19T22:55:48.937Z,11.8
2022-11-19T23:02:12.033Z,12.1
2022-11-19T23:25:08.937Z,26
2022-11-19T23:31:28.890Z,26
2022-11-19T23:37:51.993Z,26
2022-11-19T23:44:11.983Z,26
2022-11-19T23:50:35.017Z,12.6
2022-11-19T23:56:55.009Z,12.6
